Terminal Aerodrome Forecast
Issued by NWS

Home | Current Version | Previous Version | Text Only | Print | Product List | Glossary On
Versions: 1 2 3 4 5 6 7 8 9 10 11 12 13 14 15 16
300
FTUS43 KDLH 030536
TAFHIB
TAF
KHIB 030536Z 0306/0406 25004KT P6SM SKC
     FM031100 27008KT P6SM SCT090
     FM031500 31012G20KT P6SM VCSH BKN050
     FM031900 35019G26KT P6SM SKC
     FM040200 36010KT P6SM SKC=

USA.gov is the U.S. government's official web portal to all federal, state and local government web resources and services.